Cedar Mill, Oregon
Current Conditions -  °F | °C
As of 8:53 AM on Friday 24 Oct 2014 (Local Time) from KHIO Reporting Station
Clear Clear  
Wind Chill: 45°   Ceiling: Unl
Heat Index: 48°   Visibility: 8mi
Dew Point: 48°   Wind: 6mph
Humidity: 100%   Direction: 300°WNW
Pressure: 30"   Gusts: NA
Location:  45.5251°N, 122.809°W
Report Text: KHIO 241553Z 30005KT 8SM CLR 09/09 A3000 RMK AO2 SLP159 PTCHY ST SE-W T00890089
Loading
Personal Weather Stations






























Interactive Weather Map
Tropical Storm Tracking
New forecast layout! Learn more

10-Day Weather Forecast

Advertisements
Track Severe Weather on mobile